createdAt,value
2018-10-18T00:00:26.565Z,87.16
2018-10-18T00:01:26.548Z,89.36
2018-10-18T00:02:26.466Z,89.54
2018-10-18T00:03:26.537Z,90.50
2018-10-18T00:04:26.365Z,90.50
2018-10-18T00:05:26.317Z,90.41
2018-10-18T00:06:26.304Z,92.26
2018-10-18T00:07:26.217Z,92.12
2018-10-18T00:08:26.176Z,91.36
2018-10-18T00:09:26.116Z,89.74
2018-10-18T00:10:26.069Z,89.54
2018-10-18T00:11:26.052Z,87.07
2018-10-18T00:12:25.968Z,89.26
2018-10-18T00:13:25.918Z,88.40
2018-10-18T00:14:25.881Z,85.06
2018-10-18T00:15:25.820Z,85.45
2018-10-18T00:16:25.809Z,83.73
2018-10-18T00:17:25.721Z,84.20
2018-10-18T00:18:25.671Z,84.40
2018-10-18T00:19:25.638Z,86.49
2018-10-18T00:20:25.574Z,84.59
2018-10-18T00:21:25.564Z,83.64
2018-10-18T00:22:25.484Z,82.11
2018-10-18T00:23:25.422Z,82.68
2018-10-18T00:24:25.372Z,78.77
2018-10-18T00:25:25.329Z,77.06
2018-10-18T00:26:25.305Z,80.30
2018-10-18T00:27:25.225Z,78.01
2018-10-18T00:28:25.205Z,77.06
2018-10-18T00:29:25.151Z,71.81
2018-10-18T00:30:25.076Z,71.62
2018-10-18T00:31:25.029Z,73.81
2018-10-18T00:32:25.009Z,75.34
2018-10-18T00:33:24.925Z,73.81
2018-10-18T00:34:24.875Z,72.09
2018-10-18T00:35:24.825Z,71.14
2018-10-18T00:36:24.781Z,69.23
2018-10-18T00:37:24.759Z,69.62
2018-10-18T00:38:24.683Z,68.38
2018-10-18T00:39:24.626Z,69.14
2018-10-18T00:40:24.577Z,69.14
2018-10-18T00:41:24.527Z,70.86
2018-10-18T00:42:24.521Z,70.38
2018-10-18T00:43:24.435Z,70.57
2018-10-18T00:44:24.376Z,72.38
2018-10-18T00:45:24.328Z,71.72
2018-10-18T00:46:24.279Z,71.52
2018-10-18T00:47:24.259Z,74.29
2018-10-18T00:48:24.176Z,75.34
2018-10-18T00:49:24.128Z,76.20
2018-10-18T00:50:24.076Z,75.24
2018-10-18T00:51:24.028Z,74.86
2018-10-18T00:52:24.010Z,75.34
2018-10-18T00:53:23.930Z,77.06
2018-10-18T00:54:23.878Z,78.10
2018-10-18T00:55:23.860Z,78.77
2018-10-18T00:56:23.782Z,79.06
2018-10-18T00:57:23.732Z,80.68
2018-10-18T00:58:23.679Z,81.73
2018-10-18T00:59:23.629Z,81.06
2018-10-18T01:00:23.622Z,83.44
2018-10-18T01:01:23.526Z,83.83
2018-10-18T01:02:23.496Z,83.25
2018-10-18T01:03:23.432Z,82.78
2018-10-18T01:04:23.378Z,83.25
2018-10-18T01:05:23.362Z,86.11
2018-10-18T01:06:23.278Z,83.59
2018-10-18T01:07:23.236Z,84.69
2018-10-18T01:08:23.215Z,85.93
2018-10-18T01:09:23.127Z,86.69
2018-10-18T01:10:23.079Z,84.97
2018-10-18T01:11:23.032Z,84.01
2018-10-18T01:12:23.070Z,83.92
2018-10-18T01:13:22.965Z,85.45
2018-10-18T01:14:22.904Z,84.07
2018-10-18T01:15:22.834Z,79.68
2018-10-18T01:16:22.814Z,77.40
2018-10-18T01:17:22.729Z,76.35
2018-10-18T01:18:22.679Z,78.54
2018-10-18T01:19:22.631Z,79.21
2018-10-18T01:20:22.583Z,80.16
2018-10-18T01:21:22.567Z,77.87
2018-10-18T01:22:22.481Z,78.44
2018-10-18T01:23:22.429Z,80.16
2018-10-18T01:24:22.382Z,80.07
2018-10-18T01:25:22.330Z,81.59
2018-10-18T01:26:22.409Z,81.78
2018-10-18T01:27:22.229Z,81.12
2018-10-18T01:28:22.179Z,82.92
2018-10-18T01:29:22.132Z,80.44
2018-10-18T01:30:22.084Z,80.35
2018-10-18T01:31:22.075Z,79.11
2018-10-18T01:32:21.981Z,79.02
2018-10-18T01:33:21.928Z,80.26
2018-10-18T01:34:21.881Z,81.68
2018-10-18T01:35:21.832Z,78.73
2018-10-18T01:36:21.814Z,80.64
2018-10-18T01:37:21.763Z,82.26
2018-10-18T01:38:21.711Z,83.02
2018-10-18T01:39:21.632Z,80.44
2018-10-18T01:40:21.609Z,80.83
2018-10-18T01:41:21.529Z,83.78
2018-10-18T01:42:21.483Z,74.44
2018-10-18T01:43:21.428Z,70.53
2018-10-18T01:44:21.407Z,70.34
2018-10-18T01:45:21.326Z,69.20
2018-10-18T01:46:21.278Z,67.68
2018-10-18T01:47:21.230Z,67.20
2018-10-18T01:48:21.180Z,69.01
2018-10-18T01:49:21.163Z,68.69
2018-10-18T01:50:21.079Z,68.50
2018-10-18T01:51:21.026Z,67.83
2018-10-18T01:52:20.982Z,67.55
2018-10-18T01:53:20.931Z,68.02
2018-10-18T01:54:20.915Z,67.35
2018-10-18T01:55:20.833Z,65.45
2018-10-18T01:56:20.773Z,64.69
2018-10-18T01:57:20.728Z,64.50
2018-10-18T01:58:20.713Z,64.97
2018-10-18T01:59:20.624Z,67.35
2018-10-18T02:00:20.670Z,67.45
2018-10-18T02:01:20.525Z,69.54
2018-10-18T02:02:20.479Z,70.69
2018-10-18T02:03:20.455Z,69.07
2018-10-18T02:04:20.374Z,69.64
2018-10-18T02:05:20.323Z,72.41
2018-10-18T02:06:20.270Z,71.36
2018-10-18T02:07:20.227Z,70.02
2018-10-18T02:08:20.208Z,70.97
2018-10-18T02:09:20.123Z,68.30
2018-10-18T02:10:20.072Z,66.78
2018-10-18T02:11:20.025Z,66.97
2018-10-18T02:12:19.967Z,66.40
2018-10-18T02:13:19.949Z,64.12
2018-10-18T02:14:19.902Z,64.31
2018-10-18T02:15:19.817Z,65.26
2018-10-18T02:16:19.779Z,65.73
2018-10-18T02:17:19.715Z,63.92
2018-10-18T02:18:19.791Z,67.16
2018-10-18T02:19:20.112Z,67.64
2018-10-18T02:20:19.564Z,64.02
2018-10-18T02:21:19.514Z,66.11
2018-10-18T02:22:19.462Z,65.26
2018-10-18T02:23:19.417Z,66.69
2018-10-18T02:24:19.394Z,64.12
2018-10-18T02:25:19.415Z,65.36
2018-10-18T02:26:19.261Z,65.45
2018-10-18T02:27:19.252Z,63.54
2018-10-18T02:28:19.175Z,66.11
2018-10-18T02:29:19.111Z,67.26
2018-10-18T02:30:19.194Z,66.97
2018-10-18T02:31:19.009Z,64.69
2018-10-18T02:32:19.089Z,66.69
2018-10-18T02:33:18.909Z,67.93
2018-10-18T02:34:18.858Z,69.74
2018-10-18T02:35:18.810Z,70.40
2018-10-18T02:36:18.903Z,74.98
2018-10-18T02:37:18.744Z,75.64
2018-10-18T02:38:18.698Z,74.21
2018-10-18T02:39:18.630Z,74.21
2018-10-18T02:40:18.562Z,74.21
2018-10-18T02:41:18.546Z,73.45
2018-10-18T02:42:18.570Z,73.93
2018-10-18T02:43:18.474Z,74.60
2018-10-18T02:44:18.358Z,74.12
2018-10-18T02:45:18.306Z,75.16
2018-10-18T02:46:18.250Z,77.55
2018-10-18T02:47:18.204Z,78.41
2018-10-18T02:48:18.229Z,78.41
2018-10-18T02:49:18.099Z,77.26
2018-10-18T02:50:18.047Z,75.26
2018-10-18T02:51:17.999Z,69.26
2018-10-18T02:52:17.981Z,71.93
2018-10-18T02:53:17.897Z,70.69
2018-10-18T02:54:17.966Z,69.07
2018-10-18T02:55:17.799Z,70.88
2018-10-18T02:56:17.742Z,71.55
2018-10-18T02:57:17.696Z,71.17
2018-10-18T02:58:17.647Z,71.64
2018-10-18T02:59:17.641Z,71.17
2018-10-18T03:00:17.695Z,72.50
2018-10-18T03:01:17.496Z,71.07
2018-10-18T03:02:17.449Z,71.36
2018-10-18T03:03:17.396Z,70.69
2018-10-18T03:04:17.371Z,70.75
2018-10-18T03:05:17.291Z,69.23
2018-10-18T03:06:17.359Z,69.13
2018-10-18T03:07:17.217Z,68.46
2018-10-18T03:08:17.175Z,65.32
2018-10-18T03:09:17.087Z,64.65
2018-10-18T03:10:17.080Z,64.47
2018-10-18T03:11:16.987Z,63.04
2018-10-18T03:12:16.997Z,65.73
2018-10-18T03:13:16.892Z,65.80
2018-10-18T03:14:16.837Z,64.87
2018-10-18T03:15:16.820Z,68.75
2018-10-18T03:16:16.768Z,69.79
2018-10-18T03:17:16.685Z,66.97
2018-10-18T03:18:16.713Z,68.69
2018-10-18T03:19:16.579Z,69.13
2018-10-18T03:20:16.532Z,69.45
2018-10-18T03:21:16.517Z,62.30
2018-10-18T03:22:16.425Z,63.07
2018-10-18T03:23:16.386Z,66.18
2018-10-18T03:24:16.337Z,64.18
2018-10-18T03:25:16.278Z,62.18
2018-10-18T03:26:16.253Z,63.32
2018-10-18T03:27:16.173Z,62.88
2018-10-18T03:28:16.157Z,63.07
2018-10-18T03:29:16.069Z,60.18
2018-10-18T03:30:16.147Z,61.13
2018-10-18T03:31:15.970Z,63.32
2018-10-18T03:32:15.945Z,60.75
2018-10-18T03:33:15.870Z,59.42
2018-10-18T03:34:15.821Z,61.32
2018-10-18T03:35:15.832Z,62.68
2018-10-18T03:36:15.823Z,63.35
2018-10-18T03:37:15.665Z,61.99
2018-10-18T03:38:15.642Z,63.13
2018-10-18T03:39:15.572Z,64.40
2018-10-18T03:40:15.512Z,62.75
2018-10-18T03:41:15.518Z,65.92
2018-10-18T03:42:15.585Z,65.32
2018-10-18T03:43:15.361Z,65.80
2018-10-18T03:44:15.314Z,65.26
2018-10-18T03:45:15.255Z,64.37
2018-10-18T03:46:15.235Z,62.56
2018-10-18T03:47:15.191Z,62.08
2018-10-18T03:48:15.118Z,64.08
2018-10-18T03:49:15.058Z,63.60
2018-10-18T03:50:15.009Z,64.94
2018-10-18T03:51:14.966Z,65.26
2018-10-18T03:52:14.945Z,66.94
2018-10-18T03:53:14.858Z,66.27
2018-10-18T03:54:14.839Z,66.46
2018-10-18T03:55:14.751Z,66.56
2018-10-18T03:56:14.699Z,66.50
2018-10-18T03:57:14.686Z,67.89
2018-10-18T03:58:14.595Z,68.37
2018-10-18T03:59:14.553Z,68.88
2018-10-18T04:00:14.583Z,69.70
2018-10-18T04:01:14.442Z,69.04
2018-10-18T04:02:14.454Z,66.37
2018-10-18T04:03:14.345Z,65.23
2018-10-18T04:04:14.292Z,65.80
2018-10-18T04:05:14.245Z,67.22
2018-10-18T04:06:14.309Z,68.37
2018-10-18T04:07:14.172Z,67.99
2018-10-18T04:08:14.085Z,68.27
2018-10-18T04:09:14.078Z,68.75
2018-10-18T04:10:13.996Z,69.04
2018-10-18T04:11:13.977Z,69.42
2018-10-18T04:12:13.956Z,69.13
2018-10-18T04:13:13.889Z,68.75
2018-10-18T04:14:13.819Z,67.80
2018-10-18T04:15:13.731Z,67.80
2018-10-18T04:16:13.679Z,67.61
2018-10-18T04:17:13.635Z,66.37
2018-10-18T04:18:13.592Z,66.66
2018-10-18T04:19:13.572Z,67.51
2018-10-18T04:20:13.476Z,68.37
2018-10-18T04:21:13.431Z,69.60
2018-10-18T04:22:13.377Z,70.08
2018-10-18T04:23:13.326Z,70.27
2018-10-18T04:24:13.387Z,71.98
2018-10-18T04:25:13.227Z,72.27
2018-10-18T04:26:13.177Z,72.27
2018-10-18T04:27:13.121Z,73.70
2018-10-18T04:28:13.068Z,73.32
2018-10-18T04:29:13.052Z,71.42
2018-10-18T04:30:13.042Z,67.13
2018-10-18T04:31:12.961Z,62.94
2018-10-18T04:32:12.865Z,59.23
2018-10-18T04:33:12.815Z,61.70
2018-10-18T04:34:12.764Z,63.99
2018-10-18T04:35:12.710Z,67.32
2018-10-18T04:36:12.807Z,66.94
2018-10-18T04:37:12.616Z,65.42
2018-10-18T04:38:12.560Z,62.94
2018-10-18T04:39:12.507Z,59.89
2018-10-18T04:40:12.457Z,56.85
2018-10-18T04:41:12.444Z,55.61
2018-10-18T04:42:12.442Z,56.85
2018-10-18T04:43:12.303Z,59.13
2018-10-18T04:44:12.256Z,60.24
2018-10-18T04:45:12.203Z,59.58
2018-10-18T04:46:12.184Z,59.70
2018-10-18T04:47:12.188Z,59.86
2018-10-18T04:48:12.101Z,59.96
2018-10-18T04:49:11.999Z,63.10
2018-10-18T04:50:11.984Z,64.34
2018-10-18T04:51:11.895Z,64.53
2018-10-18T04:52:11.862Z,66.72
2018-10-18T04:53:11.801Z,67.19
2018-10-18T04:54:11.741Z,65.95
2018-10-18T04:55:11.752Z,65.00
2018-10-18T04:56:11.645Z,63.29
2018-10-18T04:57:11.592Z,62.72
2018-10-18T04:58:11.536Z,64.05
2018-10-18T04:59:11.485Z,62.24
2018-10-18T05:00:11.474Z,62.72
2018-10-18T05:01:11.483Z,62.15
2018-10-18T05:02:11.332Z,61.29
2018-10-18T05:03:11.279Z,61.58
2018-10-18T05:04:11.230Z,62.24
2018-10-18T05:05:11.212Z,62.05
2018-10-18T05:06:11.164Z,60.82
2018-10-18T05:07:11.093Z,62.53
2018-10-18T05:08:11.022Z,64.05
2018-10-18T05:09:10.977Z,65.77
2018-10-18T05:10:10.924Z,65.29
2018-10-18T05:11:10.987Z,65.86
2018-10-18T05:12:10.818Z,63.20
2018-10-18T05:13:10.853Z,65.19
2018-10-18T05:14:10.722Z,66.62
2018-10-18T05:15:10.668Z,70.81
2018-10-18T05:16:10.659Z,73.19
2018-10-18T05:17:10.562Z,73.85
2018-10-18T05:18:10.510Z,74.62
2018-10-18T05:19:10.565Z,71.47
2018-10-18T05:20:10.409Z,73.47
2018-10-18T05:21:10.390Z,72.71
2018-10-18T05:22:10.315Z,70.43
2018-10-18T05:23:10.257Z,71.19
2018-10-18T05:24:10.213Z,67.10
2018-10-18T05:25:10.262Z,66.62
2018-10-18T05:26:10.154Z,68.24
2018-10-18T05:27:10.051Z,67.19
2018-10-18T05:28:09.996Z,65.95
2018-10-18T05:29:09.962Z,65.29
2018-10-18T05:30:09.899Z,62.15
2018-10-18T05:31:09.975Z,63.48
2018-10-18T05:32:09.792Z,63.39
2018-10-18T05:33:09.784Z,65.10
2018-10-18T05:34:09.689Z,67.00
2018-10-18T05:35:09.636Z,65.38
2018-10-18T05:36:09.598Z,63.57
2018-10-18T05:37:09.621Z,58.62
2018-10-18T05:38:09.516Z,57.01
2018-10-18T05:39:09.432Z,57.20
2018-10-18T05:40:09.385Z,58.53
2018-10-18T05:41:09.327Z,59.96
2018-10-18T05:42:09.310Z,61.00
2018-10-18T05:43:09.387Z,63.29
2018-10-18T05:44:09.205Z,63.48
2018-10-18T05:45:09.128Z,63.48
2018-10-18T05:46:09.073Z,63.67
2018-10-18T05:47:09.066Z,63.39
2018-10-18T05:48:08.967Z,62.91
2018-10-18T05:49:08.942Z,63.39
2018-10-18T05:50:08.866Z,62.24
2018-10-18T05:51:08.841Z,62.62
2018-10-18T05:52:08.814Z,63.39
2018-10-18T05:53:08.790Z,63.57
2018-10-18T05:54:08.670Z,66.72
2018-10-18T05:55:08.652Z,67.76
2018-10-18T05:56:08.558Z,67.95
2018-10-18T05:57:08.554Z,67.76
2018-10-18T05:58:08.463Z,68.33
2018-10-18T05:59:08.405Z,66.59
2018-10-18T06:00:08.429Z,66.53
2018-10-18T06:01:08.374Z,65.77
2018-10-18T06:02:08.291Z,64.02
2018-10-18T06:03:08.225Z,65.06
2018-10-18T06:04:08.141Z,64.21
2018-10-18T06:05:08.099Z,64.15
2018-10-18T06:06:08.044Z,64.24
2018-10-18T06:07:08.167Z,65.16
2018-10-18T06:08:07.948Z,64.97
2018-10-18T06:09:07.901Z,64.78
2018-10-18T06:10:07.875Z,65.45
2018-10-18T06:11:07.816Z,65.83
2018-10-18T06:12:07.808Z,63.92
2018-10-18T06:13:07.831Z,66.68
2018-10-18T06:14:07.630Z,64.11
2018-10-18T06:15:07.573Z,63.07
2018-10-18T06:16:07.521Z,62.59
2018-10-18T06:17:07.508Z,60.50
2018-10-18T06:18:07.428Z,60.88
2018-10-18T06:19:07.451Z,60.50
2018-10-18T06:20:07.318Z,59.93
2018-10-18T06:21:07.267Z,57.26
2018-10-18T06:22:07.259Z,55.17
2018-10-18T06:23:07.184Z,53.65
2018-10-18T06:24:07.110Z,54.13
2018-10-18T06:25:07.106Z,53.94
2018-10-18T06:26:07.005Z,53.94
2018-10-18T06:27:06.992Z,53.65
2018-10-18T06:28:06.911Z,54.44
2018-10-18T06:29:06.918Z,53.08
2018-10-18T06:30:06.799Z,53.84
2018-10-18T06:31:06.859Z,54.41
2018-10-18T06:32:06.699Z,53.75
2018-10-18T06:33:06.728Z,52.82
2018-10-18T06:34:06.590Z,52.80
2018-10-18T06:35:06.595Z,51.30
2018-10-18T06:36:06.491Z,52.22
2018-10-18T06:37:06.517Z,54.35
2018-10-18T06:38:06.389Z,53.17
2018-10-18T06:39:06.390Z,52.92
2018-10-18T06:40:06.318Z,53.30
2018-10-18T06:41:06.331Z,52.51
2018-10-18T06:42:06.182Z,53.94
2018-10-18T06:43:06.268Z,52.89
2018-10-18T06:44:06.087Z,52.13
2018-10-18T06:45:06.071Z,51.37
2018-10-18T06:46:05.974Z,49.27
2018-10-18T06:47:05.964Z,49.40
2018-10-18T06:48:05.984Z,49.56
2018-10-18T06:49:05.929Z,48.44
2018-10-18T06:50:05.793Z,48.73
2018-10-18T06:51:05.713Z,49.30
2018-10-18T06:52:05.660Z,50.73
2018-10-18T06:53:05.620Z,51.97
2018-10-18T06:54:05.603Z,51.78
2018-10-18T06:55:05.556Z,52.15
2018-10-18T06:56:05.454Z,52.34
2018-10-18T06:57:05.398Z,51.20
2018-10-18T06:58:05.379Z,52.63
2018-10-18T06:59:05.327Z,53.96
2018-10-18T07:00:05.335Z,53.96
2018-10-18T07:01:05.192Z,53.87
2018-10-18T07:02:05.145Z,53.39
2018-10-18T07:03:05.097Z,54.63
2018-10-18T07:04:05.037Z,54.53
2018-10-18T07:05:05.026Z,55.04
2018-10-18T07:06:04.942Z,54.44
2018-10-18T07:07:04.882Z,54.53
2018-10-18T07:08:04.830Z,53.42
2018-10-18T07:09:04.788Z,52.72
2018-10-18T07:10:04.765Z,51.87
2018-10-18T07:11:04.787Z,53.52
2018-10-18T07:12:04.677Z,52.63
2018-10-18T07:13:04.575Z,52.44
2018-10-18T07:14:04.533Z,52.53
2018-10-18T07:15:04.541Z,50.73
2018-10-18T07:16:04.423Z,51.01
2018-10-18T07:17:04.372Z,51.30
2018-10-18T07:18:04.362Z,50.25
2018-10-18T07:19:04.263Z,51.61
2018-10-18T07:20:04.244Z,51.23
2018-10-18T07:21:04.166Z,51.89
2018-10-18T07:22:04.113Z,52.18
2018-10-18T07:23:04.059Z,52.84
2018-10-18T07:24:04.054Z,53.23
2018-10-18T07:25:04.046Z,53.23
2018-10-18T07:26:03.903Z,53.70
2018-10-18T07:27:03.850Z,54.37
2018-10-18T07:28:03.818Z,54.37
2018-10-18T07:29:03.753Z,54.27
2018-10-18T07:30:03.795Z,53.32
2018-10-18T07:31:03.642Z,53.61
2018-10-18T07:32:03.602Z,54.75
2018-10-18T07:33:03.542Z,53.70
2018-10-18T07:34:03.491Z,55.42
2018-10-18T07:35:03.531Z,55.70
2018-10-18T07:36:03.449Z,55.61
2018-10-18T07:37:03.341Z,56.94
2018-10-18T07:38:03.288Z,55.32
2018-10-18T07:39:03.233Z,56.46
2018-10-18T07:40:03.219Z,55.73
2018-10-18T07:41:03.158Z,56.21
2018-10-18T07:42:03.133Z,57.35
2018-10-18T07:43:03.061Z,58.78
2018-10-18T07:44:02.979Z,60.02
2018-10-18T07:45:02.924Z,58.59
2018-10-18T07:46:02.878Z,60.30
2018-10-18T07:47:02.979Z,61.93
2018-10-18T07:48:02.829Z,61.16
2018-10-18T07:49:02.721Z,62.91
2018-10-18T07:50:02.673Z,62.43
2018-10-18T07:51:02.622Z,63.57
2018-10-18T07:52:02.605Z,64.15
2018-10-18T07:53:02.621Z,64.43
2018-10-18T07:54:02.523Z,64.24
2018-10-18T07:55:02.420Z,63.57
2018-10-18T07:56:02.382Z,64.15
2018-10-18T07:57:02.349Z,63.57
2018-10-18T07:58:02.265Z,62.62
2018-10-18T07:59:02.212Z,64.34
2018-10-18T08:00:02.270Z,63.20
2018-10-18T08:01:02.116Z,62.34
2018-10-18T08:02:02.093Z,63.39
2018-10-18T08:03:02.011Z,62.15
2018-10-18T08:04:01.958Z,61.86
2018-10-18T08:05:01.908Z,63.76
2018-10-18T08:06:01.856Z,63.67
2018-10-18T08:07:01.882Z,62.72
2018-10-18T08:08:01.784Z,62.24
2018-10-18T08:09:01.704Z,62.72
2018-10-18T08:10:01.716Z,63.76
2018-10-18T08:11:01.627Z,64.05
2018-10-18T08:12:01.549Z,64.15
2018-10-18T08:13:01.554Z,63.86
2018-10-18T08:14:01.456Z,65.48
2018-10-18T08:15:01.402Z,64.75
2018-10-18T08:16:01.345Z,64.65
2018-10-18T08:17:01.448Z,65.52
2018-10-18T08:18:01.280Z,65.33
2018-10-18T08:19:01.250Z,65.04
2018-10-18T08:20:01.148Z,65.99
2018-10-18T08:21:01.092Z,66.56
2018-10-18T08:22:01.042Z,67.71
2018-10-18T08:23:01.024Z,68.09
2018-10-18T08:24:00.945Z,69.04
2018-10-18T08:25:00.917Z,69.14
2018-10-18T08:26:00.885Z,69.14
2018-10-18T08:27:00.791Z,70.00
2018-10-18T08:28:00.743Z,69.14
2018-10-18T08:29:00.696Z,69.27
2018-10-18T08:30:00.645Z,69.04
2018-10-18T08:31:00.654Z,68.88
2018-10-18T08:32:00.544Z,69.65
2018-10-18T08:33:00.519Z,68.79
2018-10-18T08:34:00.444Z,69.27
2018-10-18T08:35:00.388Z,68.51
2018-10-18T08:36:00.338Z,67.55
2018-10-18T08:37:00.338Z,69.17
2018-10-18T08:38:00.420Z,68.70
2018-10-18T08:39:00.186Z,68.98
2018-10-18T08:40:00.138Z,69.84
2018-10-18T08:41:00.118Z,71.08
2018-10-18T08:42:00.037Z,71.88
2018-10-18T08:43:00.055Z,71.37
2018-10-18T08:43:59.951Z,71.59
2018-10-18T08:44:59.890Z,72.07
2018-10-18T08:45:59.838Z,71.75
2018-10-18T08:46:59.793Z,70.92
2018-10-18T08:47:59.766Z,71.50
2018-10-18T08:48:59.712Z,71.50
2018-10-18T08:49:59.816Z,71.59
2018-10-18T08:50:59.621Z,72.64
2018-10-18T08:51:59.541Z,72.74
2018-10-18T08:52:59.485Z,73.41
2018-10-18T08:53:59.435Z,73.60
2018-10-18T08:54:59.419Z,74.40
2018-10-18T08:55:59.376Z,76.40
2018-10-18T08:56:59.303Z,77.36
2018-10-18T08:57:59.251Z,77.84
2018-10-18T08:58:59.196Z,78.22
2018-10-18T08:59:59.140Z,78.99
2018-10-18T09:00:59.175Z,79.98
2018-10-18T09:01:59.040Z,79.41
2018-10-18T09:02:58.997Z,81.60
2018-10-18T09:03:58.939Z,81.79
2018-10-18T09:04:58.894Z,81.51
2018-10-18T09:05:58.883Z,81.99
2018-10-18T09:06:58.824Z,84.80
2018-10-18T09:07:58.741Z,84.61
2018-10-18T09:08:58.708Z,86.43
2018-10-18T09:09:58.644Z,86.23
2018-10-18T09:10:58.631Z,87.66
2018-10-18T09:11:58.546Z,89.01
2018-10-18T09:12:58.509Z,88.34
2018-10-18T09:13:58.448Z,87.66
2018-10-18T09:14:58.425Z,88.43
2018-10-18T09:15:58.478Z,89.48
2018-10-18T09:16:58.304Z,87.76
2018-10-18T09:17:58.256Z,87.86
2018-10-18T09:18:58.219Z,87.48
2018-10-18T09:19:58.164Z,87.86
2018-10-18T09:20:58.151Z,89.87
2018-10-18T09:21:58.064Z,89.96
2018-10-18T09:22:58.015Z,92.07
2018-10-18T09:23:58.067Z,92.07
2018-10-18T09:24:57.923Z,90.44
2018-10-18T09:25:57.906Z,91.30
2018-10-18T09:26:57.825Z,92.16
2018-10-18T09:27:57.769Z,92.16
2018-10-18T09:28:57.718Z,92.35
2018-10-18T09:29:57.705Z,92.74
2018-10-18T09:30:57.625Z,93.88
2018-10-18T09:31:57.604Z,93.79
2018-10-18T09:32:57.529Z,95.61
2018-10-18T09:33:57.482Z,94.07
2018-10-18T09:34:57.459Z,94.55
2018-10-18T09:35:57.380Z,94.12
2018-10-18T09:36:57.336Z,93.50
2018-10-18T09:37:57.283Z,94.46
2018-10-18T09:38:57.241Z,95.36
2018-10-18T09:39:57.224Z,96.51
2018-10-18T09:40:57.138Z,96.32
2018-10-18T09:41:57.090Z,97.95
2018-10-18T09:42:57.075Z,97.75
2018-10-18T09:43:56.993Z,99.10
2018-10-18T09:44:57.051Z,98.71
2018-10-18T09:45:56.902Z,98.81
2018-10-18T09:46:56.848Z,99.99
2018-10-18T09:47:56.798Z,99.99
2018-10-18T09:48:56.823Z,99.99
2018-10-18T09:49:56.703Z,99.99
2018-10-18T09:50:56.746Z,99.99
2018-10-18T09:51:56.609Z,99.99
2018-10-18T09:52:56.566Z,99.99
2018-10-18T09:53:56.544Z,99.99
2018-10-18T09:54:56.497Z,99.99
2018-10-18T09:55:56.453Z,99.99
2018-10-18T09:56:56.369Z,99.99
2018-10-18T09:57:56.325Z,99.99
2018-10-18T09:58:56.307Z,99.99
2018-10-18T09:59:56.226Z,99.99
2018-10-18T10:00:56.249Z,99.99
2018-10-18T10:01:56.131Z,99.99
2018-10-18T10:02:56.126Z,99.99
2018-10-18T10:03:56.037Z,99.99
2018-10-18T10:04:56.021Z,99.99
2018-10-18T10:05:55.977Z,99.99
2018-10-18T10:06:55.934Z,99.99
2018-10-18T10:07:55.850Z,99.99
2018-10-18T10:08:55.844Z,99.99
2018-10-18T10:09:55.782Z,99.99
2018-10-18T10:10:55.715Z,99.99
2018-10-18T10:11:55.661Z,99.99
2018-10-18T10:12:55.655Z,99.99
2018-10-18T10:13:55.558Z,99.99
2018-10-18T10:14:55.560Z,99.99
2018-10-18T10:15:55.482Z,99.99
2018-10-18T10:16:55.416Z,99.99
2018-10-18T10:17:55.373Z,99.99
2018-10-18T10:18:55.337Z,99.99
2018-10-18T10:19:55.328Z,99.99
2018-10-18T10:20:55.232Z,99.99
2018-10-18T10:21:55.179Z,99.99
2018-10-18T10:22:55.136Z,99.99
2018-10-18T10:23:55.085Z,99.99
2018-10-18T10:24:55.079Z,99.99
2018-10-18T10:25:55.013Z,99.99
2018-10-18T10:26:54.943Z,99.99
2018-10-18T10:27:54.892Z,99.99
2018-10-18T10:28:54.846Z,99.99
2018-10-18T10:29:54.839Z,99.99
2018-10-18T10:30:54.789Z,99.99
2018-10-18T10:31:54.705Z,99.99
2018-10-18T10:32:54.732Z,99.99
2018-10-18T10:33:54.609Z,99.99
2018-10-18T10:34:54.616Z,99.99
2018-10-18T10:35:54.559Z,99.99
2018-10-18T10:36:54.484Z,99.99
2018-10-18T10:37:54.428Z,99.99
2018-10-18T10:38:54.427Z,99.99
2018-10-18T10:39:54.336Z,99.99
2018-10-18T10:40:54.323Z,99.99
2018-10-18T10:41:54.288Z,99.99
2018-10-18T10:42:54.283Z,99.99
2018-10-18T10:43:54.144Z,99.99
2018-10-18T10:44:54.110Z,99.99
2018-10-18T10:45:54.166Z,99.99
2018-10-18T10:46:54.002Z,99.99
2018-10-18T10:47:54.036Z,99.99
2018-10-18T10:48:53.959Z,99.99
2018-10-18T10:49:53.867Z,99.99
2018-10-18T10:50:53.822Z,99.99
2018-10-18T10:51:53.872Z,99.99
2018-10-18T10:52:53.731Z,99.99
2018-10-18T10:53:53.690Z,99.99
2018-10-18T10:54:53.641Z,99.99
2018-10-18T10:55:53.625Z,99.99
2018-10-18T10:56:53.633Z,99.99
2018-10-18T10:57:53.535Z,99.99
2018-10-18T10:58:53.505Z,99.99
2018-10-18T10:59:53.419Z,99.99
2018-10-18T11:00:53.374Z,99.99
2018-10-18T11:01:53.393Z,99.99
2018-10-18T11:02:53.342Z,99.99
2018-10-18T11:03:53.245Z,99.99
2018-10-18T11:04:53.198Z,99.99
2018-10-18T11:05:53.184Z,99.99
2018-10-18T11:06:53.239Z,99.99
2018-10-18T11:07:53.077Z,99.99
2018-10-18T11:15:00.467Z,99.84
2018-10-18T11:16:00.415Z,97.81
2018-10-18T11:17:00.372Z,96.94
2018-10-18T11:18:00.399Z,97.91
2018-10-18T11:19:00.288Z,99.99
2018-10-18T11:20:00.292Z,99.99
2018-10-18T11:21:00.228Z,99.99
2018-10-18T11:22:00.200Z,99.99
2018-10-18T11:23:00.118Z,99.99
2018-10-18T11:24:00.129Z,99.99
2018-10-18T11:25:00.060Z,99.99
2018-10-18T11:25:59.990Z,99.99
2018-10-18T11:27:00.009Z,99.99
2018-10-18T11:27:59.903Z,99.99
2018-10-18T11:28:59.862Z,99.99
2018-10-18T11:29:59.868Z,99.99
2018-10-18T11:30:59.774Z,99.99
2018-10-18T11:31:59.811Z,99.99
2018-10-18T11:32:59.737Z,99.99
2018-10-18T11:33:59.646Z,99.99
2018-10-18T11:34:59.634Z,99.99
2018-10-18T11:35:59.590Z,99.99
2018-10-18T11:36:59.555Z,99.99
2018-10-18T11:37:59.489Z,99.99
2018-10-18T11:38:59.431Z,99.99
2018-10-18T11:39:59.385Z,99.99
2018-10-18T11:40:59.354Z,99.99
2018-10-18T11:41:59.382Z,99.99
2018-10-18T11:42:59.258Z,99.99
2018-10-18T11:43:59.225Z,99.99
2018-10-18T11:44:59.177Z,99.99
2018-10-18T11:45:59.133Z,99.99
2018-10-18T11:46:59.119Z,99.99
2018-10-18T11:47:59.073Z,99.99
2018-10-18T11:48:59.001Z,99.99
2018-10-18T11:49:59.005Z,99.99
2018-10-18T11:50:58.917Z,99.99
2018-10-18T11:51:58.966Z,99.99
2018-10-18T11:52:58.834Z,99.99
2018-10-18T11:53:58.884Z,99.99
2018-10-18T11:54:58.744Z,99.99
2018-10-18T11:55:58.752Z,99.99
2018-10-18T11:56:58.716Z,99.99
2018-10-18T11:57:58.622Z,99.99
2018-10-18T11:58:58.635Z,99.99
2018-10-18T11:59:58.537Z,99.99
2018-10-18T12:00:58.490Z,99.99
2018-10-18T12:01:58.509Z,99.99
2018-10-18T12:02:58.409Z,99.99
2018-10-18T12:03:58.496Z,99.99
2018-10-18T12:04:58.326Z,99.99
2018-10-18T12:05:58.282Z,99.99
2018-10-18T12:06:58.231Z,99.99
2018-10-18T12:07:58.254Z,99.99
2018-10-18T12:08:58.188Z,99.99
2018-10-18T12:09:58.142Z,99.99
2018-10-18T12:10:58.098Z,99.99
2018-10-18T12:11:58.019Z,99.99
2018-10-18T12:12:57.978Z,99.99
2018-10-18T12:13:57.938Z,99.99
2018-10-18T12:14:57.942Z,99.99
2018-10-18T12:15:57.851Z,99.99
2018-10-18T12:16:57.819Z,99.99
2018-10-18T12:17:57.764Z,99.99
2018-10-18T12:18:57.758Z,99.99
2018-10-18T12:19:57.717Z,99.50
2018-10-18T12:20:57.648Z,99.30
2018-10-18T12:21:57.595Z,98.92
2018-10-18T12:22:57.577Z,97.38
2018-10-18T12:23:57.506Z,96.41
2018-10-18T12:24:57.503Z,96.46
2018-10-18T12:25:57.444Z,97.72
2018-10-18T12:26:57.473Z,98.77
2018-10-18T12:27:57.345Z,98.20
2018-10-18T12:28:57.376Z,98.39
2018-10-18T12:29:57.257Z,96.32
2018-10-18T12:30:57.211Z,96.22
2018-10-18T12:31:57.179Z,96.22
2018-10-18T12:32:57.167Z,96.03
2018-10-18T12:33:57.120Z,94.78
2018-10-18T12:34:57.074Z,94.73
2018-10-18T12:35:56.999Z,93.76
2018-10-18T12:36:56.964Z,92.22
2018-10-18T12:37:57.004Z,91.54
2018-10-18T12:38:56.875Z,92.02
2018-10-18T12:39:56.884Z,93.23
2018-10-18T12:40:56.836Z,92.56
2018-10-18T12:41:56.802Z,93.13
2018-10-18T12:42:56.703Z,92.85
2018-10-18T12:43:56.718Z,92.56
2018-10-18T12:44:56.677Z,92.75
2018-10-18T12:45:56.636Z,94.10
2018-10-18T12:46:56.541Z,94.78
2018-10-18T12:47:56.546Z,93.81
2018-10-18T12:48:56.463Z,93.28
2018-10-18T12:49:56.483Z,93.19
2018-10-18T12:50:56.373Z,93.76
2018-10-18T12:51:56.358Z,94.82
2018-10-18T12:52:56.283Z,94.82
2018-10-18T12:53:56.297Z,95.84
2018-10-18T12:54:56.198Z,96.22
2018-10-18T12:55:56.199Z,95.84
2018-10-18T12:56:56.157Z,96.99
2018-10-18T12:57:56.101Z,97.24